sensor_id;sensor_type;location;lat;lon;timestamp;P1;durP1;ratioP1;P2;durP2;ratioP2
9898;SDS011;4988;49.238;6.698;2023-01-13T00:01:39;6.50;;;2.40;;
9898;SDS011;4988;49.238;6.698;2023-01-13T00:04:04;4.13;;;2.47;;
9898;SDS011;4988;49.238;6.698;2023-01-13T00:06:30;4.37;;;2.50;;
9898;SDS011;4988;49.238;6.698;2023-01-13T00:08:55;5.40;;;2.40;;
9898;SDS011;4988;49.238;6.698;2023-01-13T00:11:21;4.57;;;2.20;;
9898;SDS011;4988;49.238;6.698;2023-01-13T00:13:47;3.70;;;2.30;;
9898;SDS011;4988;49.238;6.698;2023-01-13T00:16:14;5.43;;;2.50;;
9898;SDS011;4988;49.238;6.698;2023-01-13T00:18:41;4.03;;;2.10;;
9898;SDS011;4988;49.238;6.698;2023-01-13T00:21:11;3.60;;;2.10;;
9898;SDS011;4988;49.238;6.698;2023-01-13T00:23:47;5.40;;;2.63;;
9898;SDS011;4988;49.238;6.698;2023-01-13T00:26:17;4.60;;;2.00;;
9898;SDS011;4988;49.238;6.698;2023-01-13T00:28:48;6.17;;;2.20;;
9898;SDS011;4988;49.238;6.698;2023-01-13T00:31:17;5.03;;;2.27;;
9898;SDS011;4988;49.238;6.698;2023-01-13T00:33:44;2.93;;;2.10;;
9898;SDS011;4988;49.238;6.698;2023-01-13T00:36:10;2.83;;;2.20;;
9898;SDS011;4988;49.238;6.698;2023-01-13T00:38:38;2.80;;;2.07;;
9898;SDS011;4988;49.238;6.698;2023-01-13T00:41:05;2.93;;;2.00;;
9898;SDS011;4988;49.238;6.698;2023-01-13T00:43:35;2.07;;;1.97;;
9898;SDS011;4988;49.238;6.698;2023-01-13T00:46:01;3.50;;;2.00;;
9898;SDS011;4988;49.238;6.698;2023-01-13T00:48:29;2.20;;;2.10;;
9898;SDS011;4988;49.238;6.698;2023-01-13T00:53:24;3.23;;;1.87;;
9898;SDS011;4988;49.238;6.698;2023-01-13T00:56:07;2.40;;;2.20;;
9898;SDS011;4988;49.238;6.698;2023-01-13T00:58:35;2.90;;;2.70;;
9898;SDS011;4988;49.238;6.698;2023-01-13T01:01:04;5.50;;;2.50;;
9898;SDS011;4988;49.238;6.698;2023-01-13T01:03:32;3.30;;;2.00;;
9898;SDS011;4988;49.238;6.698;2023-01-13T01:06:02;3.67;;;2.07;;
9898;SDS011;4988;49.238;6.698;2023-01-13T01:08:30;3.23;;;1.90;;
9898;SDS011;4988;49.238;6.698;2023-01-13T01:11:02;2.87;;;1.90;;
9898;SDS011;4988;49.238;6.698;2023-01-13T01:13:32;3.70;;;2.37;;
9898;SDS011;4988;49.238;6.698;2023-01-13T01:15:58;4.17;;;2.10;;
9898;SDS011;4988;49.238;6.698;2023-01-13T01:18:24;4.83;;;2.10;;
9898;SDS011;4988;49.238;6.698;2023-01-13T01:20:49;2.87;;;1.83;;
9898;SDS011;4988;49.238;6.698;2023-01-13T01:23:15;4.50;;;2.27;;
9898;SDS011;4988;49.238;6.698;2023-01-13T01:25:40;3.00;;;1.90;;
9898;SDS011;4988;49.238;6.698;2023-01-13T01:28:06;1.93;;;1.80;;
9898;SDS011;4988;49.238;6.698;2023-01-13T01:30:31;6.13;;;2.10;;
9898;SDS011;4988;49.238;6.698;2023-01-13T01:32:56;1.90;;;1.80;;
9898;SDS011;4988;49.238;6.698;2023-01-13T01:35:22;2.33;;;2.03;;
9898;SDS011;4988;49.238;6.698;2023-01-13T01:37:48;3.57;;;2.30;;
9898;SDS011;4988;49.238;6.698;2023-01-13T01:40:14;2.00;;;1.90;;
9898;SDS011;4988;49.238;6.698;2023-01-13T01:42:39;5.50;;;2.50;;
9898;SDS011;4988;49.238;6.698;2023-01-13T01:45:23;3.90;;;2.00;;
9898;SDS011;4988;49.238;6.698;2023-01-13T01:47:54;2.30;;;2.00;;
9898;SDS011;4988;49.238;6.698;2023-01-13T01:50:23;3.47;;;1.87;;
9898;SDS011;4988;49.238;6.698;2023-01-13T01:52:52;2.90;;;1.80;;
9898;SDS011;4988;49.238;6.698;2023-01-13T01:55:26;2.10;;;1.90;;
9898;SDS011;4988;49.238;6.698;2023-01-13T01:58:01;2.17;;;2.07;;
9898;SDS011;4988;49.238;6.698;2023-01-13T02:00:27;3.43;;;2.20;;
9898;SDS011;4988;49.238;6.698;2023-01-13T02:02:52;1.97;;;1.80;;
9898;SDS011;4988;49.238;6.698;2023-01-13T02:05:19;1.97;;;1.87;;
9898;SDS011;4988;49.238;6.698;2023-01-13T02:07:45;1.90;;;1.80;;
9898;SDS011;4988;49.238;6.698;2023-01-13T02:10:14;1.57;;;1.47;;
9898;SDS011;4988;49.238;6.698;2023-01-13T02:12:42;2.30;;;1.47;;
9898;SDS011;4988;49.238;6.698;2023-01-13T02:15:13;1.90;;;1.80;;
9898;SDS011;4988;49.238;6.698;2023-01-13T02:17:49;2.20;;;2.00;;
9898;SDS011;4988;49.238;6.698;2023-01-13T02:28:51;2.10;;;1.70;;
9898;SDS011;4988;49.238;6.698;2023-01-13T02:31:40;1.90;;;1.80;;
9898;SDS011;4988;49.238;6.698;2023-01-13T02:37:05;1.90;;;1.80;;
9898;SDS011;4988;49.238;6.698;2023-01-13T02:42:31;2.23;;;1.90;;
9898;SDS011;4988;49.238;6.698;2023-01-13T02:47:43;2.10;;;1.93;;
9898;SDS011;4988;49.238;6.698;2023-01-13T02:50:13;1.83;;;1.73;;
9898;SDS011;4988;49.238;6.698;2023-01-13T02:52:46;2.00;;;1.90;;
9898;SDS011;4988;49.238;6.698;2023-01-13T02:55:21;1.80;;;1.70;;
9898;SDS011;4988;49.238;6.698;2023-01-13T02:57:52;1.83;;;1.50;;
9898;SDS011;4988;49.238;6.698;2023-01-13T03:00:19;1.77;;;1.67;;
9898;SDS011;4988;49.238;6.698;2023-01-13T03:02:47;2.83;;;2.00;;
9898;SDS011;4988;49.238;6.698;2023-01-13T03:05:13;1.90;;;1.80;;
9898;SDS011;4988;49.238;6.698;2023-01-13T03:07:58;2.27;;;1.77;;
9898;SDS011;4988;49.238;6.698;2023-01-13T03:16:32;2.10;;;1.90;;
9898;SDS011;4988;49.238;6.698;2023-01-13T03:20:00;2.30;;;1.83;;
9898;SDS011;4988;49.238;6.698;2023-01-13T03:22:17;2.10;;;1.90;;
9898;SDS011;4988;49.238;6.698;2023-01-13T03:24:54;3.33;;;1.97;;
9898;SDS011;4988;49.238;6.698;2023-01-13T03:27:31;2.40;;;1.60;;
9898;SDS011;4988;49.238;6.698;2023-01-13T03:30:05;1.73;;;1.63;;
9898;SDS011;4988;49.238;6.698;2023-01-13T03:32:34;2.40;;;2.10;;
9898;SDS011;4988;49.238;6.698;2023-01-13T03:35:11;2.30;;;2.10;;
9898;SDS011;4988;49.238;6.698;2023-01-13T03:37:46;2.30;;;2.20;;
9898;SDS011;4988;49.238;6.698;2023-01-13T03:40:21;2.43;;;2.23;;
9898;SDS011;4988;49.238;6.698;2023-01-13T03:42:52;2.07;;;1.97;;
9898;SDS011;4988;49.238;6.698;2023-01-13T03:45:50;2.63;;;2.43;;
9898;SDS011;4988;49.238;6.698;2023-01-13T03:48:20;2.40;;;2.00;;
9898;SDS011;4988;49.238;6.698;2023-01-13T03:50:49;4.73;;;2.50;;
9898;SDS011;4988;49.238;6.698;2023-01-13T03:53:25;4.47;;;2.90;;
9898;SDS011;4988;49.238;6.698;2023-01-13T03:56:07;3.07;;;2.67;;
9898;SDS011;4988;49.238;6.698;2023-01-13T03:58:40;4.27;;;3.23;;
9898;SDS011;4988;49.238;6.698;2023-01-13T04:03:49;3.53;;;3.10;;
9898;SDS011;4988;49.238;6.698;2023-01-13T04:06:22;3.87;;;2.80;;
9898;SDS011;4988;49.238;6.698;2023-01-13T04:08:56;2.60;;;2.40;;
9898;SDS011;4988;49.238;6.698;2023-01-13T04:11:31;3.70;;;2.70;;
9898;SDS011;4988;49.238;6.698;2023-01-13T04:14:02;2.87;;;2.67;;
9898;SDS011;4988;49.238;6.698;2023-01-13T04:16:30;3.67;;;2.90;;
9898;SDS011;4988;49.238;6.698;2023-01-13T04:18:56;2.87;;;2.60;;
9898;SDS011;4988;49.238;6.698;2023-01-13T04:21:21;2.67;;;2.40;;
9898;SDS011;4988;49.238;6.698;2023-01-13T04:23:46;2.93;;;2.63;;
9898;SDS011;4988;49.238;6.698;2023-01-13T04:26:15;2.50;;;2.30;;
9898;SDS011;4988;49.238;6.698;2023-01-13T04:28:41;3.43;;;3.13;;
9898;SDS011;4988;49.238;6.698;2023-01-13T04:31:06;2.93;;;2.73;;
9898;SDS011;4988;49.238;6.698;2023-01-13T04:33:31;3.87;;;2.67;;
9898;SDS011;4988;49.238;6.698;2023-01-13T04:35:57;2.67;;;2.47;;
9898;SDS011;4988;49.238;6.698;2023-01-13T04:38:22;3.40;;;2.53;;
9898;SDS011;4988;49.238;6.698;2023-01-13T04:40:47;3.50;;;2.37;;
9898;SDS011;4988;49.238;6.698;2023-01-13T04:43:13;3.47;;;2.63;;
9898;SDS011;4988;49.238;6.698;2023-01-13T04:45:40;2.63;;;2.43;;
9898;SDS011;4988;49.238;6.698;2023-01-13T04:48:06;2.70;;;2.40;;
9898;SDS011;4988;49.238;6.698;2023-01-13T04:50:31;3.67;;;2.90;;
9898;SDS011;4988;49.238;6.698;2023-01-13T04:52:57;3.47;;;2.73;;
9898;SDS011;4988;49.238;6.698;2023-01-13T04:55:23;3.50;;;2.40;;
9898;SDS011;4988;49.238;6.698;2023-01-13T04:57:49;3.53;;;2.43;;
9898;SDS011;4988;49.238;6.698;2023-01-13T05:00:15;2.70;;;2.00;;
9898;SDS011;4988;49.238;6.698;2023-01-13T05:02:42;2.03;;;1.90;;
9898;SDS011;4988;49.238;6.698;2023-01-13T05:05:07;1.97;;;1.70;;
9898;SDS011;4988;49.238;6.698;2023-01-13T05:07:33;2.47;;;1.60;;
9898;SDS011;4988;49.238;6.698;2023-01-13T05:09:58;1.80;;;1.70;;
9898;SDS011;4988;49.238;6.698;2023-01-13T05:12:24;2.10;;;2.00;;
9898;SDS011;4988;49.238;6.698;2023-01-13T05:15:12;2.80;;;1.70;;
9898;SDS011;4988;49.238;6.698;2023-01-13T05:17:56;2.23;;;2.00;;
9898;SDS011;4988;49.238;6.698;2023-01-13T05:20:22;2.90;;;2.00;;
9898;SDS011;4988;49.238;6.698;2023-01-13T05:22:48;2.70;;;1.90;;
9898;SDS011;4988;49.238;6.698;2023-01-13T05:25:32;2.00;;;1.87;;
9898;SDS011;4988;49.238;6.698;2023-01-13T05:28:01;3.93;;;2.73;;
9898;SDS011;4988;49.238;6.698;2023-01-13T05:30:28;4.40;;;1.80;;
9898;SDS011;4988;49.238;6.698;2023-01-13T05:32:55;1.70;;;1.60;;
9898;SDS011;4988;49.238;6.698;2023-01-13T05:35:20;2.70;;;1.90;;
9898;SDS011;4988;49.238;6.698;2023-01-13T05:37:46;1.60;;;1.50;;
9898;SDS011;4988;49.238;6.698;2023-01-13T05:40:12;2.50;;;1.97;;
9898;SDS011;4988;49.238;6.698;2023-01-13T05:43:02;5.17;;;2.63;;
9898;SDS011;4988;49.238;6.698;2023-01-13T05:48:14;2.13;;;2.00;;
9898;SDS011;4988;49.238;6.698;2023-01-13T05:50:41;4.03;;;2.20;;
9898;SDS011;4988;49.238;6.698;2023-01-13T05:53:06;4.70;;;2.70;;
9898;SDS011;4988;49.238;6.698;2023-01-13T05:55:32;3.20;;;2.00;;
9898;SDS011;4988;49.238;6.698;2023-01-13T05:57:57;2.33;;;1.70;;
9898;SDS011;4988;49.238;6.698;2023-01-13T06:00:22;2.40;;;1.83;;
9898;SDS011;4988;49.238;6.698;2023-01-13T06:02:48;2.73;;;2.07;;
9898;SDS011;4988;49.238;6.698;2023-01-13T06:05:13;2.87;;;2.00;;
9898;SDS011;4988;49.238;6.698;2023-01-13T06:07:39;3.13;;;1.93;;
9898;SDS011;4988;49.238;6.698;2023-01-13T06:10:05;5.17;;;2.03;;
9898;SDS011;4988;49.238;6.698;2023-01-13T06:12:30;4.13;;;1.80;;
9898;SDS011;4988;49.238;6.698;2023-01-13T06:14:56;2.67;;;1.93;;
9898;SDS011;4988;49.238;6.698;2023-01-13T06:17:21;3.23;;;2.13;;
9898;SDS011;4988;49.238;6.698;2023-01-13T06:19:46;2.50;;;1.87;;
9898;SDS011;4988;49.238;6.698;2023-01-13T06:22:14;4.07;;;2.23;;
9898;SDS011;4988;49.238;6.698;2023-01-13T06:24:42;3.53;;;2.43;;
9898;SDS011;4988;49.238;6.698;2023-01-13T06:27:09;2.60;;;2.40;;
9898;SDS011;4988;49.238;6.698;2023-01-13T06:29:36;5.00;;;2.57;;
9898;SDS011;4988;49.238;6.698;2023-01-13T06:32:02;2.10;;;2.00;;
9898;SDS011;4988;49.238;6.698;2023-01-13T06:34:31;2.87;;;2.20;;
9898;SDS011;4988;49.238;6.698;2023-01-13T06:36:58;3.07;;;2.47;;
9898;SDS011;4988;49.238;6.698;2023-01-13T06:39:25;2.23;;;1.70;;
9898;SDS011;4988;49.238;6.698;2023-01-13T06:41:55;2.47;;;2.27;;
9898;SDS011;4988;49.238;6.698;2023-01-13T06:44:40;2.70;;;2.00;;
9898;SDS011;4988;49.238;6.698;2023-01-13T06:47:05;2.97;;;2.03;;
9898;SDS011;4988;49.238;6.698;2023-01-13T06:49:31;5.47;;;2.10;;
9898;SDS011;4988;49.238;6.698;2023-01-13T06:51:57;8.00;;;2.53;;
9898;SDS011;4988;49.238;6.698;2023-01-13T06:54:22;3.97;;;2.30;;
9898;SDS011;4988;49.238;6.698;2023-01-13T06:56:47;5.47;;;2.10;;
9898;SDS011;4988;49.238;6.698;2023-01-13T06:59:13;6.83;;;2.40;;
9898;SDS011;4988;49.238;6.698;2023-01-13T07:01:38;9.13;;;2.43;;
9898;SDS011;4988;49.238;6.698;2023-01-13T07:04:03;5.57;;;2.00;;
9898;SDS011;4988;49.238;6.698;2023-01-13T07:06:29;7.70;;;2.53;;
9898;SDS011;4988;49.238;6.698;2023-01-13T07:08:54;6.13;;;2.50;;
9898;SDS011;4988;49.238;6.698;2023-01-13T07:11:19;6.33;;;2.20;;
9898;SDS011;4988;49.238;6.698;2023-01-13T07:13:45;6.97;;;2.13;;
9898;SDS011;4988;49.238;6.698;2023-01-13T07:16:28;7.23;;;2.47;;
9898;SDS011;4988;49.238;6.698;2023-01-13T07:18:53;10.83;;;2.57;;
9898;SDS011;4988;49.238;6.698;2023-01-13T07:21:19;11.87;;;2.67;;
9898;SDS011;4988;49.238;6.698;2023-01-13T07:23:45;3.23;;;2.20;;
9898;SDS011;4988;49.238;6.698;2023-01-13T07:26:11;10.63;;;3.53;;
9898;SDS011;4988;49.238;6.698;2023-01-13T07:28:37;7.43;;;2.67;;
9898;SDS011;4988;49.238;6.698;2023-01-13T07:31:03;11.27;;;2.60;;
9898;SDS011;4988;49.238;6.698;2023-01-13T07:33:29;7.00;;;2.47;;
9898;SDS011;4988;49.238;6.698;2023-01-13T07:35:58;14.23;;;3.60;;
9898;SDS011;4988;49.238;6.698;2023-01-13T07:38:26;7.43;;;2.10;;
9898;SDS011;4988;49.238;6.698;2023-01-13T07:40:52;7.93;;;2.90;;
9898;SDS011;4988;49.238;6.698;2023-01-13T07:43:17;9.90;;;2.47;;
9898;SDS011;4988;49.238;6.698;2023-01-13T07:45:58;7.67;;;2.77;;
9898;SDS011;4988;49.238;6.698;2023-01-13T07:48:29;4.50;;;3.03;;
9898;SDS011;4988;49.238;6.698;2023-01-13T07:50:59;9.47;;;2.80;;
9898;SDS011;4988;49.238;6.698;2023-01-13T07:53:26;7.70;;;2.77;;
9898;SDS011;4988;49.238;6.698;2023-01-13T07:55:54;16.43;;;2.50;;
9898;SDS011;4988;49.238;6.698;2023-01-13T07:58:20;8.53;;;3.30;;
9898;SDS011;4988;49.238;6.698;2023-01-13T08:00:46;10.27;;;3.00;;
9898;SDS011;4988;49.238;6.698;2023-01-13T08:03:11;11.20;;;2.70;;
9898;SDS011;4988;49.238;6.698;2023-01-13T08:05:36;7.73;;;2.90;;
9898;SDS011;4988;49.238;6.698;2023-01-13T08:08:02;9.53;;;3.17;;
9898;SDS011;4988;49.238;6.698;2023-01-13T08:10:27;10.30;;;3.00;;
9898;SDS011;4988;49.238;6.698;2023-01-13T08:12:52;15.80;;;3.40;;
9898;SDS011;4988;49.238;6.698;2023-01-13T08:15:36;10.80;;;3.60;;
9898;SDS011;4988;49.238;6.698;2023-01-13T08:18:01;17.77;;;3.63;;
9898;SDS011;4988;49.238;6.698;2023-01-13T08:20:26;12.27;;;3.30;;
9898;SDS011;4988;49.238;6.698;2023-01-13T08:22:58;10.70;;;2.83;;
9898;SDS011;4988;49.238;6.698;2023-01-13T08:25:25;10.53;;;3.47;;
9898;SDS011;4988;49.238;6.698;2023-01-13T08:27:51;12.67;;;3.40;;
9898;SDS011;4988;49.238;6.698;2023-01-13T08:30:17;8.13;;;2.80;;
9898;SDS011;4988;49.238;6.698;2023-01-13T08:32:43;10.43;;;3.20;;
9898;SDS011;4988;49.238;6.698;2023-01-13T08:35:09;9.47;;;3.00;;
9898;SDS011;4988;49.238;6.698;2023-01-13T08:37:34;14.07;;;3.60;;
9898;SDS011;4988;49.238;6.698;2023-01-13T08:40:00;14.17;;;3.57;;
9898;SDS011;4988;49.238;6.698;2023-01-13T08:42:25;10.30;;;2.90;;
9898;SDS011;4988;49.238;6.698;2023-01-13T08:44:51;11.43;;;3.00;;
9898;SDS011;4988;49.238;6.698;2023-01-13T08:47:18;10.10;;;3.13;;
9898;SDS011;4988;49.238;6.698;2023-01-13T08:49:43;9.93;;;2.67;;
9898;SDS011;4988;49.238;6.698;2023-01-13T08:52:08;11.17;;;3.53;;
9898;SDS011;4988;49.238;6.698;2023-01-13T08:54:34;14.10;;;3.50;;
9898;SDS011;4988;49.238;6.698;2023-01-13T08:57:02;7.97;;;2.90;;
9898;SDS011;4988;49.238;6.698;2023-01-13T08:59:27;6.93;;;3.20;;
9898;SDS011;4988;49.238;6.698;2023-01-13T09:01:53;13.63;;;2.60;;
9898;SDS011;4988;49.238;6.698;2023-01-13T09:04:19;19.07;;;2.93;;
9898;SDS011;4988;49.238;6.698;2023-01-13T09:06:47;11.20;;;2.90;;
9898;SDS011;4988;49.238;6.698;2023-01-13T09:09:13;17.80;;;4.07;;
9898;SDS011;4988;49.238;6.698;2023-01-13T09:11:42;12.07;;;3.10;;
9898;SDS011;4988;49.238;6.698;2023-01-13T09:14:30;11.33;;;3.07;;
9898;SDS011;4988;49.238;6.698;2023-01-13T09:16:57;12.33;;;3.40;;
9898;SDS011;4988;49.238;6.698;2023-01-13T09:19:23;12.07;;;3.13;;
9898;SDS011;4988;49.238;6.698;2023-01-13T09:21:49;11.10;;;3.67;;
9898;SDS011;4988;49.238;6.698;2023-01-13T09:24:16;12.53;;;3.70;;
9898;SDS011;4988;49.238;6.698;2023-01-13T09:26:42;7.83;;;2.90;;
9898;SDS011;4988;49.238;6.698;2023-01-13T09:29:07;6.57;;;2.90;;
9898;SDS011;4988;49.238;6.698;2023-01-13T09:31:32;11.97;;;2.60;;
9898;SDS011;4988;49.238;6.698;2023-01-13T09:33:59;6.53;;;3.17;;
9898;SDS011;4988;49.238;6.698;2023-01-13T09:36:46;10.70;;;3.20;;
9898;SDS011;4988;49.238;6.698;2023-01-13T09:39:12;14.67;;;2.90;;
9898;SDS011;4988;49.238;6.698;2023-01-13T09:41:45;5.40;;;2.87;;
9898;SDS011;4988;49.238;6.698;2023-01-13T09:47:47;16.03;;;3.10;;
9898;SDS011;4988;49.238;6.698;2023-01-13T09:50:40;9.30;;;2.83;;
9898;SDS011;4988;49.238;6.698;2023-01-13T09:53:11;17.20;;;4.23;;
9898;SDS011;4988;49.238;6.698;2023-01-13T09:55:41;10.83;;;3.00;;
9898;SDS011;4988;49.238;6.698;2023-01-13T09:58:11;11.73;;;2.77;;
9898;SDS011;4988;49.238;6.698;2023-01-13T10:03:22;10.43;;;2.83;;
9898;SDS011;4988;49.238;6.698;2023-01-13T10:08:32;12.50;;;2.73;;
9898;SDS011;4988;49.238;6.698;2023-01-13T10:11:02;12.90;;;2.60;;
9898;SDS011;4988;49.238;6.698;2023-01-13T10:13:57;9.23;;;2.80;;
9898;SDS011;4988;49.238;6.698;2023-01-13T10:16:37;9.23;;;2.63;;
9898;SDS011;4988;49.238;6.698;2023-01-13T10:19:19;7.23;;;2.30;;
9898;SDS011;4988;49.238;6.698;2023-01-13T10:27:26;10.43;;;4.10;;
9898;SDS011;4988;49.238;6.698;2023-01-13T10:29:53;17.03;;;3.10;;
9898;SDS011;4988;49.238;6.698;2023-01-13T10:32:19;13.73;;;3.30;;
9898;SDS011;4988;49.238;6.698;2023-01-13T10:34:48;14.83;;;3.30;;
9898;SDS011;4988;49.238;6.698;2023-01-13T10:37:25;8.57;;;2.80;;
9898;SDS011;4988;49.238;6.698;2023-01-13T10:39:55;7.83;;;3.40;;
9898;SDS011;4988;49.238;6.698;2023-01-13T10:42:22;12.70;;;3.13;;
9898;SDS011;4988;49.238;6.698;2023-01-13T10:52:31;11.23;;;3.50;;
9898;SDS011;4988;49.238;6.698;2023-01-13T10:55:00;10.03;;;3.27;;
9898;SDS011;4988;49.238;6.698;2023-01-13T10:57:27;11.63;;;3.17;;
9898;SDS011;4988;49.238;6.698;2023-01-13T10:59:52;15.17;;;3.33;;
9898;SDS011;4988;49.238;6.698;2023-01-13T11:02:28;10.67;;;3.10;;
9898;SDS011;4988;49.238;6.698;2023-01-13T11:10:17;10.53;;;2.60;;
9898;SDS011;4988;49.238;6.698;2023-01-13T11:12:50;9.33;;;3.10;;
9898;SDS011;4988;49.238;6.698;2023-01-13T11:15:18;12.43;;;3.50;;
9898;SDS011;4988;49.238;6.698;2023-01-13T11:18:03;14.03;;;3.00;;
9898;SDS011;4988;49.238;6.698;2023-01-13T11:20:38;11.10;;;3.10;;
9898;SDS011;4988;49.238;6.698;2023-01-13T11:23:15;15.03;;;3.27;;
9898;SDS011;4988;49.238;6.698;2023-01-13T11:25:47;14.07;;;3.40;;
9898;SDS011;4988;49.238;6.698;2023-01-13T11:31:13;10.57;;;3.27;;
9898;SDS011;4988;49.238;6.698;2023-01-13T11:36:20;12.07;;;3.17;;
9898;SDS011;4988;49.238;6.698;2023-01-13T11:38:50;11.80;;;3.10;;
9898;SDS011;4988;49.238;6.698;2023-01-13T11:41:21;11.80;;;3.20;;
9898;SDS011;4988;49.238;6.698;2023-01-13T11:44:03;8.77;;;2.30;;
9898;SDS011;4988;49.238;6.698;2023-01-13T11:46:36;12.23;;;3.50;;
9898;SDS011;4988;49.238;6.698;2023-01-13T11:49:04;14.47;;;2.73;;
9898;SDS011;4988;49.238;6.698;2023-01-13T11:54:08;15.30;;;3.37;;
9898;SDS011;4988;49.238;6.698;2023-01-13T11:59:43;10.73;;;2.50;;
9898;SDS011;4988;49.238;6.698;2023-01-13T12:02:29;14.30;;;3.67;;
9898;SDS011;4988;49.238;6.698;2023-01-13T12:05:28;10.93;;;3.20;;
9898;SDS011;4988;49.238;6.698;2023-01-13T12:08:20;16.90;;;3.57;;
9898;SDS011;4988;49.238;6.698;2023-01-13T12:16:32;10.57;;;2.50;;
9898;SDS011;4988;49.238;6.698;2023-01-13T12:22:05;14.23;;;4.13;;
9898;SDS011;4988;49.238;6.698;2023-01-13T12:27:03;7.23;;;2.83;;
9898;SDS011;4988;49.238;6.698;2023-01-13T12:29:35;6.47;;;2.20;;
9898;SDS011;4988;49.238;6.698;2023-01-13T12:32:12;13.53;;;3.20;;
9898;SDS011;4988;49.238;6.698;2023-01-13T12:40:27;10.73;;;3.00;;
9898;SDS011;4988;49.238;6.698;2023-01-13T12:42:57;16.13;;;3.00;;
9898;SDS011;4988;49.238;6.698;2023-01-13T12:45:52;8.53;;;2.77;;
9898;SDS011;4988;49.238;6.698;2023-01-13T12:51:28;14.43;;;3.37;;
9898;SDS011;4988;49.238;6.698;2023-01-13T12:53:58;13.17;;;3.67;;
9898;SDS011;4988;49.238;6.698;2023-01-13T13:01:40;12.93;;;3.07;;
9898;SDS011;4988;49.238;6.698;2023-01-13T13:04:09;11.30;;;3.07;;
9898;SDS011;4988;49.238;6.698;2023-01-13T13:06:37;11.03;;;3.30;;
9898;SDS011;4988;49.238;6.698;2023-01-13T13:11:45;8.10;;;2.97;;
9898;SDS011;4988;49.238;6.698;2023-01-13T13:17:02;16.87;;;3.53;;
9898;SDS011;4988;49.238;6.698;2023-01-13T13:30:03;12.57;;;3.20;;
9898;SDS011;4988;49.238;6.698;2023-01-13T13:38:25;10.83;;;2.80;;
9898;SDS011;4988;49.238;6.698;2023-01-13T13:41:17;13.53;;;3.67;;
9898;SDS011;4988;49.238;6.698;2023-01-13T13:44:11;9.03;;;3.10;;
9898;SDS011;4988;49.238;6.698;2023-01-13T13:47:00;9.23;;;3.10;;
9898;SDS011;4988;49.238;6.698;2023-01-13T13:49:37;13.83;;;3.23;;
9898;SDS011;4988;49.238;6.698;2023-01-13T13:52:11;15.43;;;3.50;;
9898;SDS011;4988;49.238;6.698;2023-01-13T13:54:46;10.93;;;3.60;;
9898;SDS011;4988;49.238;6.698;2023-01-13T13:57:22;8.57;;;3.73;;
9898;SDS011;4988;49.238;6.698;2023-01-13T13:59:51;10.13;;;3.40;;
9898;SDS011;4988;49.238;6.698;2023-01-13T14:02:23;14.57;;;3.40;;
9898;SDS011;4988;49.238;6.698;2023-01-13T14:07:45;12.27;;;3.60;;
9898;SDS011;4988;49.238;6.698;2023-01-13T14:10:21;14.40;;;3.43;;
9898;SDS011;4988;49.238;6.698;2023-01-13T14:12:50;13.03;;;3.70;;
9898;SDS011;4988;49.238;6.698;2023-01-13T14:15:27;10.70;;;3.03;;
9898;SDS011;4988;49.238;6.698;2023-01-13T14:17:55;8.50;;;3.80;;
9898;SDS011;4988;49.238;6.698;2023-01-13T14:20:21;9.67;;;2.87;;
9898;SDS011;4988;49.238;6.698;2023-01-13T14:22:51;9.00;;;3.20;;
9898;SDS011;4988;49.238;6.698;2023-01-13T14:27:55;11.27;;;2.80;;
9898;SDS011;4988;49.238;6.698;2023-01-13T14:30:22;9.50;;;3.00;;
9898;SDS011;4988;49.238;6.698;2023-01-13T14:32:49;10.27;;;2.67;;
9898;SDS011;4988;49.238;6.698;2023-01-13T14:35:16;14.13;;;3.30;;
9898;SDS011;4988;49.238;6.698;2023-01-13T14:37:42;12.33;;;3.77;;
9898;SDS011;4988;49.238;6.698;2023-01-13T14:42:57;6.93;;;3.00;;
9898;SDS011;4988;49.238;6.698;2023-01-13T14:45:24;13.07;;;3.07;;
9898;SDS011;4988;49.238;6.698;2023-01-13T14:47:51;11.70;;;3.00;;
9898;SDS011;4988;49.238;6.698;2023-01-13T14:50:22;11.67;;;2.67;;
9898;SDS011;4988;49.238;6.698;2023-01-13T14:52:55;10.80;;;2.83;;
9898;SDS011;4988;49.238;6.698;2023-01-13T14:55:23;6.57;;;3.00;;
9898;SDS011;4988;49.238;6.698;2023-01-13T14:58:20;11.77;;;3.10;;
9898;SDS011;4988;49.238;6.698;2023-01-13T15:00:49;9.97;;;2.47;;
9898;SDS011;4988;49.238;6.698;2023-01-13T15:03:16;9.57;;;2.87;;
9898;SDS011;4988;49.238;6.698;2023-01-13T15:05:49;10.00;;;3.07;;
9898;SDS011;4988;49.238;6.698;2023-01-13T15:08:20;11.67;;;2.77;;
9898;SDS011;4988;49.238;6.698;2023-01-13T15:16:00;12.20;;;2.83;;
9898;SDS011;4988;49.238;6.698;2023-01-13T15:18:27;8.27;;;2.57;;
9898;SDS011;4988;49.238;6.698;2023-01-13T15:20:53;9.67;;;3.10;;
9898;SDS011;4988;49.238;6.698;2023-01-13T15:23:20;14.20;;;2.93;;
9898;SDS011;4988;49.238;6.698;2023-01-13T15:25:46;11.07;;;2.90;;
9898;SDS011;4988;49.238;6.698;2023-01-13T15:28:16;10.93;;;3.57;;
9898;SDS011;4988;49.238;6.698;2023-01-13T15:30:48;10.60;;;2.93;;
9898;SDS011;4988;49.238;6.698;2023-01-13T15:33:15;8.60;;;2.87;;
9898;SDS011;4988;49.238;6.698;2023-01-13T15:35:42;13.37;;;3.17;;
9898;SDS011;4988;49.238;6.698;2023-01-13T15:38:11;11.07;;;3.00;;
9898;SDS011;4988;49.238;6.698;2023-01-13T15:40:39;12.80;;;3.00;;
9898;SDS011;4988;49.238;6.698;2023-01-13T15:43:08;14.67;;;3.13;;
9898;SDS011;4988;49.238;6.698;2023-01-13T15:45:56;7.43;;;2.80;;
9898;SDS011;4988;49.238;6.698;2023-01-13T15:48:40;12.13;;;3.03;;
9898;SDS011;4988;49.238;6.698;2023-01-13T15:51:05;7.73;;;2.70;;
9898;SDS011;4988;49.238;6.698;2023-01-13T15:53:31;12.40;;;3.43;;
9898;SDS011;4988;49.238;6.698;2023-01-13T15:55:57;11.80;;;4.27;;
9898;SDS011;4988;49.238;6.698;2023-01-13T15:58:24;14.70;;;3.67;;
9898;SDS011;4988;49.238;6.698;2023-01-13T16:00:51;8.47;;;3.13;;
9898;SDS011;4988;49.238;6.698;2023-01-13T16:03:16;12.47;;;3.23;;
9898;SDS011;4988;49.238;6.698;2023-01-13T16:05:42;9.47;;;3.30;;
9898;SDS011;4988;49.238;6.698;2023-01-13T16:08:18;13.57;;;3.53;;
9898;SDS011;4988;49.238;6.698;2023-01-13T16:10:45;9.23;;;4.30;;
9898;SDS011;4988;49.238;6.698;2023-01-13T16:13:11;10.03;;;4.20;;
9898;SDS011;4988;49.238;6.698;2023-01-13T16:15:39;12.13;;;3.97;;
9898;SDS011;4988;49.238;6.698;2023-01-13T16:18:09;16.80;;;4.50;;
9898;SDS011;4988;49.238;6.698;2023-01-13T16:20:42;10.07;;;3.37;;
9898;SDS011;4988;49.238;6.698;2023-01-13T16:23:08;10.70;;;3.57;;
9898;SDS011;4988;49.238;6.698;2023-01-13T16:25:34;12.77;;;3.40;;
9898;SDS011;4988;49.238;6.698;2023-01-13T16:27:59;13.00;;;3.67;;
9898;SDS011;4988;49.238;6.698;2023-01-13T16:30:26;12.50;;;4.03;;
9898;SDS011;4988;49.238;6.698;2023-01-13T16:32:55;8.10;;;3.40;;
9898;SDS011;4988;49.238;6.698;2023-01-13T16:35:21;7.83;;;3.50;;
9898;SDS011;4988;49.238;6.698;2023-01-13T16:37:48;10.63;;;3.73;;
9898;SDS011;4988;49.238;6.698;2023-01-13T16:40:24;9.80;;;3.80;;
9898;SDS011;4988;49.238;6.698;2023-01-13T16:42:54;7.93;;;2.93;;
9898;SDS011;4988;49.238;6.698;2023-01-13T16:45:21;10.97;;;3.00;;
9898;SDS011;4988;49.238;6.698;2023-01-13T16:47:46;8.30;;;3.13;;
9898;SDS011;4988;49.238;6.698;2023-01-13T16:50:28;10.57;;;4.00;;
9898;SDS011;4988;49.238;6.698;2023-01-13T16:52:58;10.30;;;3.53;;
9898;SDS011;4988;49.238;6.698;2023-01-13T16:55:23;12.97;;;3.47;;
9898;SDS011;4988;49.238;6.698;2023-01-13T16:57:49;10.37;;;4.33;;
9898;SDS011;4988;49.238;6.698;2023-01-13T17:00:14;12.87;;;3.57;;
9898;SDS011;4988;49.238;6.698;2023-01-13T17:02:40;10.63;;;3.17;;
9898;SDS011;4988;49.238;6.698;2023-01-13T17:05:05;11.60;;;3.10;;
9898;SDS011;4988;49.238;6.698;2023-01-13T17:07:31;10.63;;;3.23;;
9898;SDS011;4988;49.238;6.698;2023-01-13T17:09:57;17.17;;;5.63;;
9898;SDS011;4988;49.238;6.698;2023-01-13T17:12:22;8.87;;;3.37;;
9898;SDS011;4988;49.238;6.698;2023-01-13T17:14:47;5.53;;;2.97;;
9898;SDS011;4988;49.238;6.698;2023-01-13T17:17:18;14.27;;;3.80;;
9898;SDS011;4988;49.238;6.698;2023-01-13T17:19:48;7.80;;;2.63;;
9898;SDS011;4988;49.238;6.698;2023-01-13T17:22:14;12.07;;;3.20;;
9898;SDS011;4988;49.238;6.698;2023-01-13T17:24:39;10.20;;;3.60;;
9898;SDS011;4988;49.238;6.698;2023-01-13T17:27:04;10.50;;;2.73;;
9898;SDS011;4988;49.238;6.698;2023-01-13T17:29:30;9.10;;;2.70;;
9898;SDS011;4988;49.238;6.698;2023-01-13T17:31:56;11.33;;;3.67;;
9898;SDS011;4988;49.238;6.698;2023-01-13T17:34:22;7.90;;;3.73;;
9898;SDS011;4988;49.238;6.698;2023-01-13T17:36:48;19.03;;;3.73;;